Time;durP1;ratioP1;P1;durP2;ratioP2;P2;SDS_P1;SDS_P2;PMS_P1;PMS_P2;Temp;Humidity;BMP_temperature;BMP_pressure;BME280_temperature;BME280_humidity;BME280_pressure;Samples;Min_cycle;Max_cycle;Signal;HPM_P1;HPM_P2
2022/03/25 00:02:11;;;;;;;9.20;3.90;;;7.50;94.70;;;;;;5070621;28;20209;-71
2022/03/25 00:04:37;;;;;;;5.97;3.85;;;7.50;94.60;;;;;;5070737;28;20214;-71
2022/03/25 00:07:03;;;;;;;12.48;4.35;;;7.50;94.70;;;;;;5069344;28;20188;-71
2022/03/25 00:09:29;;;;;;;11.52;3.25;;;7.40;94.70;;;;;;5070515;28;20169;-71
2022/03/25 00:11:55;;;;;;;7.25;3.22;;;7.30;95.10;;;;;;5070594;28;20618;-71
2022/03/25 00:14:21;;;;;;;4.22;3.35;;;7.20;94.90;;;;;;5070335;28;20272;-71
2022/03/25 00:16:47;;;;;;;8.75;3.70;;;7.20;94.90;;;;;;5070349;28;20247;-71
2022/03/25 00:19:14;;;;;;;8.82;3.72;;;7.20;95.00;;;;;;5070372;28;20176;-71
2022/03/25 00:21:40;;;;;;;7.28;3.72;;;7.30;94.90;;;;;;5070246;28;20177;-71
2022/03/25 00:24:06;;;;;;;8.55;3.45;;;7.30;95.00;;;;;;5067853;28;20262;-71
2022/03/25 00:26:32;;;;;;;7.63;4.22;;;7.20;95.10;;;;;;5070130;28;20175;-71
2022/03/25 00:28:58;;;;;;;9.27;4.03;;;7.10;95.40;;;;;;5069978;28;20164;-71
2022/03/25 00:31:24;;;;;;;10.25;4.38;;;7.10;95.00;;;;;;5069948;28;20161;-71
2022/03/25 00:33:50;;;;;;;10.90;4.43;;;7.20;95.20;;;;;;5069590;28;20248;-71
2022/03/25 00:36:23;;;;;;;6.18;3.70;;;7.20;95.20;;;;;;5069993;28;20160;-71
2022/03/25 00:38:49;;;;;;;7.70;3.70;;;7.00;95.40;;;;;;5069926;28;20153;-71
2022/03/25 00:41:16;;;;;;;9.32;3.63;;;6.90;95.70;;;;;;5069737;28;20165;-71
2022/03/25 00:43:46;;;;;;;6.65;3.53;;;6.70;96.00;;;;;;5069662;28;20208;-71
2022/03/25 00:46:13;;;;;;;7.43;3.70;;;6.70;96.10;;;;;;5069729;28;20240;-71
2022/03/25 00:48:43;;;;;;;5.63;3.45;;;6.80;96.00;;;;;;5069607;28;20161;-71
2022/03/25 00:51:10;;;;;;;6.50;3.45;;;6.90;95.70;;;;;;5069647;28;20167;-71
2022/03/25 00:53:37;;;;;;;5.97;3.10;;;6.90;95.60;;;;;;5069475;28;20235;-71
2022/03/25 00:56:04;;;;;;;7.00;3.83;;;6.80;95.80;;;;;;5051255;28;20197;-70
2022/03/25 00:58:30;;;;;;;5.68;3.17;;;6.60;95.90;;;;;;5069023;28;20217;-70
2022/03/25 01:00:57;;;;;;;8.35;3.38;;;6.50;96.40;;;;;;5069387;28;20618;-70
2022/03/25 01:03:23;;;;;;;5.38;3.25;;;6.30;96.70;;;;;;5069407;28;20665;-70
2022/03/25 01:05:49;;;;;;;4.10;2.65;;;6.10;96.80;;;;;;5069295;28;20152;-70
2022/03/25 01:08:16;;;;;;;7.70;3.00;;;5.90;97.10;;;;;;5069373;28;20518;-70
2022/03/25 01:10:43;;;;;;;6.93;3.45;;;5.90;97.10;;;;;;5069224;28;20639;-70
2022/03/25 01:13:10;;;;;;;5.88;3.28;;;5.80;97.30;;;;;;5069264;28;20749;-70
2022/03/25 01:15:36;;;;;;;10.95;3.15;;;6.10;97.00;;;;;;5069121;28;20192;-70
2022/03/25 01:18:03;;;;;;;7.35;3.58;;;6.20;96.90;;;;;;5069027;28;20157;-70
2022/03/25 01:20:30;;;;;;;8.43;3.63;;;6.10;97.10;;;;;;5069166;28;20159;-70
2022/03/25 01:22:56;;;;;;;9.13;4.72;;;6.00;97.30;;;;;;5069100;28;20192;-70
2022/03/25 01:25:22;;;;;;;5.32;3.67;;;6.00;97.30;;;;;;5069024;28;20219;-70
2022/03/25 01:27:48;;;;;;;7.60;3.55;;;6.10;97.10;;;;;;5069061;28;20156;-70
2022/03/25 01:30:15;;;;;;;9.82;3.08;;;6.10;97.10;;;;;;5050838;28;20275;-70
2022/03/25 01:32:40;;;;;;;6.47;2.97;;;6.20;97.10;;;;;;5060348;28;20179;-70
2022/03/25 01:35:09;;;;;;;6.57;2.95;;;6.20;97.10;;;;;;5068884;28;20180;-70
2022/03/25 01:37:36;;;;;;;4.85;3.80;;;6.40;96.80;;;;;;5068926;28;20165;-70
2022/03/25 01:40:05;;;;;;;9.35;3.45;;;6.40;96.70;;;;;;5064962;28;20183;-70
2022/03/25 01:42:32;;;;;;;5.45;3.60;;;6.10;97.10;;;;;;5068764;28;20179;-70
2022/03/25 01:44:59;;;;;;;8.80;3.72;;;5.80;97.60;;;;;;5068715;28;20153;-71
2022/03/25 01:47:29;;;;;;;8.27;3.40;;;5.70;97.90;;;;;;5068748;28;20171;-70
2022/03/25 01:49:59;;;;;;;6.63;3.35;;;5.60;98.00;;;;;;5068703;28;20177;-70
2022/03/25 01:52:25;;;;;;;4.60;2.90;;;5.50;98.30;;;;;;5068610;28;20227;-72
2022/03/25 01:54:52;;;;;;;6.93;3.22;;;5.30;98.60;;;;;;5068596;28;20208;-70
2022/03/25 01:57:21;;;;;;;5.00;3.38;;;5.20;98.90;;;;;;5068724;28;20156;-72
2022/03/25 01:59:47;;;;;;;6.45;3.35;;;5.00;98.80;;;;;;5068504;28;20223;-71
2022/03/25 02:02:13;;;;;;;6.93;3.20;;;5.00;98.90;;;;;;5068587;28;20188;-72
2022/03/25 02:04:41;;;;;;;5.10;2.95;;;5.00;99.00;;;;;;5068707;28;20175;-72
2022/03/25 02:07:09;;;;;;;6.18;3.08;;;4.90;99.40;;;;;;5068711;28;20210;-72
2022/03/25 02:09:35;;;;;;;7.22;3.60;;;4.80;99.30;;;;;;5068732;28;20164;-71
2022/03/25 02:12:01;;;;;;;6.63;3.55;;;4.80;99.50;;;;;;5068341;28;20196;-71
2022/03/25 02:14:27;;;;;;;11.05;3.72;;;4.90;99.30;;;;;;5068472;28;20219;-70
2022/03/25 02:16:53;;;;;;;5.18;2.67;;;4.90;99.20;;;;;;5068587;28;20156;-71
2022/03/25 02:19:19;;;;;;;5.10;3.70;;;4.80;99.40;;;;;;5068635;28;20191;-72
2022/03/25 02:21:47;;;;;;;8.25;3.80;;;4.80;99.60;;;;;;5068429;28;20188;-71
2022/03/25 02:24:15;;;;;;;7.65;3.67;;;5.00;99.10;;;;;;5068420;28;20191;-71
2022/03/25 02:26:42;;;;;;;5.32;3.35;;;5.20;98.90;;;;;;5068323;28;20164;-71
2022/03/25 02:29:10;;;;;;;6.88;3.65;;;5.40;98.70;;;;;;5069219;28;20196;-72
2022/03/25 02:31:36;;;;;;;8.65;3.67;;;5.50;98.40;;;;;;5072137;28;20212;-71
2022/03/25 02:34:08;;;;;;;8.60;3.78;;;5.50;98.40;;;;;;5072054;28;20263;-71
2022/03/25 02:36:41;;;;;;;5.47;3.17;;;5.40;98.40;;;;;;5072189;28;20165;-71
2022/03/25 02:39:10;;;;;;;4.95;3.00;;;5.40;98.60;;;;;;5072210;28;20163;-72
2022/03/25 02:41:36;;;;;;;6.78;3.70;;;5.30;98.60;;;;;;5072013;28;20194;-71
2022/03/25 02:44:03;;;;;;;10.98;3.65;;;5.30;98.80;;;;;;5072079;28;20184;-71
2022/03/25 02:46:30;;;;;;;7.88;3.53;;;5.30;98.80;;;;;;5072094;28;20165;-71
2022/03/25 02:48:56;;;;;;;7.30;3.70;;;5.40;98.60;;;;;;5072166;28;20149;-71
2022/03/25 02:51:22;;;;;;;4.38;3.30;;;5.60;98.20;;;;;;5071936;28;20189;-71
2022/03/25 02:53:48;;;;;;;7.75;3.58;;;5.70;97.90;;;;;;5072029;28;20164;-71
2022/03/25 02:56:14;;;;;;;6.55;3.83;;;5.70;97.80;;;;;;5072058;28;20583;-71
2022/03/25 02:58:40;;;;;;;5.88;3.95;;;5.60;98.00;;;;;;5071772;28;20236;-71
2022/03/25 03:01:06;;;;;;;7.03;3.72;;;5.60;98.00;;;;;;5071855;28;20192;-71
2022/03/25 03:03:33;;;;;;;5.35;3.22;;;5.60;98.00;;;;;;5071980;28;20165;-71
2022/03/25 03:06:00;;;;;;;6.43;3.13;;;5.70;98.00;;;;;;5071974;28;20252;-71
2022/03/25 03:08:27;;;;;;;5.25;4.03;;;5.60;98.10;;;;;;5071753;28;20188;-71
2022/03/25 03:10:54;;;;;;;5.72;3.33;;;5.60;98.10;;;;;;5071740;28;20214;-71
2022/03/25 03:13:20;;;;;;;5.97;3.42;;;5.60;98.20;;;;;;5071775;28;20164;-71
2022/03/25 03:15:50;;;;;;;11.95;3.97;;;5.60;98.20;;;;;;5071741;28;20191;-71
2022/03/25 03:18:16;;;;;;;5.25;3.03;;;5.50;98.30;;;;;;5071730;28;20179;-72
2022/03/25 03:20:42;;;;;;;8.15;3.80;;;5.40;98.50;;;;;;5071617;28;20185;-72
2022/03/25 03:23:09;;;;;;;5.32;4.03;;;5.40;98.50;;;;;;5071574;28;20161;-71
2022/03/25 03:25:35;;;;;;;4.72;3.50;;;5.40;98.50;;;;;;5071384;28;20222;-71
2022/03/25 03:28:03;;;;;;;6.05;3.75;;;5.30;98.60;;;;;;5071448;28;20191;-71
2022/03/25 03:30:30;;;;;;;4.68;3.28;;;5.30;98.80;;;;;;5071164;28;20204;-71
2022/03/25 03:32:57;;;;;;;12.48;4.32;;;5.50;98.60;;;;;;5071100;28;20235;-71
2022/03/25 03:35:25;;;;;;;8.48;3.95;;;5.60;98.60;;;;;;5070847;28;20251;-71
2022/03/25 03:37:52;;;;;;;5.93;3.40;;;5.40;98.80;;;;;;5071247;28;20152;-71
2022/03/25 03:40:18;;;;;;;6.03;4.00;;;5.30;99.00;;;;;;5071271;28;20229;-71
2022/03/25 03:42:45;;;;;;;6.60;3.75;;;5.40;99.00;;;;;;5070907;28;20604;-71
2022/03/25 03:45:13;;;;;;;5.43;3.45;;;5.50;98.90;;;;;;5070847;28;20199;-71
2022/03/25 03:47:41;;;;;;;7.45;4.20;;;5.40;99.10;;;;;;5053553;28;20219;-71
2022/03/25 03:50:09;;;;;;;15.63;5.38;;;5.30;99.00;;;;;;5070013;28;20216;-71
2022/03/25 03:52:36;;;;;;;12.30;7.22;;;5.30;98.80;;;;;;5071341;28;20177;-70
2022/03/25 03:55:03;;;;;;;10.75;6.38;;;5.30;99.00;;;;;;5053101;28;20189;-71
2022/03/25 03:57:30;;;;;;;6.82;4.75;;;5.30;98.80;;;;;;5070891;28;20222;-70
2022/03/25 03:59:56;;;;;;;7.13;5.38;;;5.30;98.70;;;;;;5070728;28;20620;-70
2022/03/25 04:02:22;;;;;;;6.28;3.97;;;5.20;98.90;;;;;;5070766;28;20187;-70
2022/03/25 04:04:48;;;;;;;5.63;3.47;;;5.00;99.20;;;;;;5070763;28;20258;-71
2022/03/25 04:07:15;;;;;;;12.70;4.10;;;4.90;99.60;;;;;;5070651;28;20190;-70
2022/03/25 04:09:41;;;;;;;7.25;3.90;;;4.70;99.90;;;;;;5070612;28;20200;-70
2022/03/25 04:12:13;;;;;;;9.07;3.70;;;4.50;99.90;;;;;;5070594;28;20168;-70
2022/03/25 04:14:39;;;;;;;7.88;4.57;;;4.40;99.90;;;;;;5070578;28;20180;-70
2022/03/25 04:17:05;;;;;;;10.43;6.68;;;4.20;99.90;;;;;;5052516;28;20172;-71
2022/03/25 04:19:31;;;;;;;6.30;3.70;;;4.10;99.90;;;;;;5070424;28;20269;-70
2022/03/25 04:21:57;;;;;;;7.35;4.75;;;4.40;99.90;;;;;;5052621;28;20168;-70
2022/03/25 04:24:23;;;;;;;9.02;4.20;;;4.50;99.90;;;;;;5070342;28;20184;-71
2022/03/25 04:26:49;;;;;;;6.60;3.42;;;4.50;99.90;;;;;;5070265;28;20175;-71
2022/03/25 04:29:15;;;;;;;9.98;4.07;;;4.80;99.90;;;;;;5070146;28;20593;-70
2022/03/25 04:31:41;;;;;;;4.28;3.38;;;5.00;99.90;;;;;;5070129;28;20212;-70
2022/03/25 04:34:07;;;;;;;6.15;3.95;;;5.10;99.90;;;;;;5069960;28;20280;-70
2022/03/25 04:36:34;;;;;;;9.75;4.05;;;5.10;99.70;;;;;;5070056;28;20188;-70
2022/03/25 04:39:00;;;;;;;8.50;4.97;;;5.20;99.60;;;;;;5069953;28;20200;-71
2022/03/25 04:41:26;;;;;;;6.85;4.22;;;5.10;99.60;;;;;;5069883;28;20221;-72
2022/03/25 04:43:52;;;;;;;17.33;8.00;;;5.00;99.80;;;;;;5069991;28;20184;-71
2022/03/25 04:46:18;;;;;;;11.00;4.90;;;4.80;99.90;;;;;;5069995;28;20199;-71
2022/03/25 04:48:45;;;;;;;7.85;4.82;;;4.60;99.90;;;;;;5069882;28;20196;-70
2022/03/25 04:51:11;;;;;;;7.65;4.60;;;4.30;99.90;;;;;;5069690;28;20157;-71
2022/03/25 04:53:38;;;;;;;13.45;4.35;;;4.10;99.90;;;;;;5069400;28;20206;-72
2022/03/25 04:56:04;;;;;;;7.05;3.58;;;4.00;99.90;;;;;;5069741;28;20191;-72
2022/03/25 04:58:30;;;;;;;6.75;3.88;;;3.80;99.90;;;;;;5069453;28;20275;-72
2022/03/25 05:00:56;;;;;;;5.93;4.50;;;3.70;99.90;;;;;;5069616;28;20168;-72
2022/03/25 05:03:22;;;;;;;9.15;4.30;;;3.60;99.90;;;;;;5069748;28;20183;-72
2022/03/25 05:05:49;;;;;;;13.82;4.72;;;3.50;99.90;;;;;;5051915;28;20622;-71
2022/03/25 05:08:16;;;;;;;11.35;4.63;;;3.40;99.90;;;;;;5069630;28;20715;-71
2022/03/25 05:10:42;;;;;;;14.98;5.05;;;3.30;99.90;;;;;;5069578;28;20160;-71
2022/03/25 05:13:08;;;;;;;10.02;5.07;;;3.30;99.90;;;;;;5069461;28;20160;-71
2022/03/25 05:15:35;;;;;;;9.68;4.68;;;3.30;99.90;;;;;;5069249;28;20200;-71
2022/03/25 05:18:01;;;;;;;17.95;5.43;;;3.30;99.90;;;;;;5069413;28;20663;-71
2022/03/25 05:20:27;;;;;;;9.45;5.15;;;3.30;99.90;;;;;;5069469;28;20692;-71
2022/03/25 05:22:52;;;;;;;7.88;4.20;;;3.40;99.90;;;;;;5069103;28;20157;-71
2022/03/25 05:25:20;;;;;;;10.88;5.03;;;3.50;99.90;;;;;;5069120;28;20164;-71
2022/03/25 05:27:52;;;;;;;10.90;4.95;;;3.60;99.90;;;;;;5069001;28;20645;-71
2022/03/25 05:30:28;;;;;;;13.30;4.93;;;3.80;99.90;;;;;;5069249;28;20157;-70
2022/03/25 05:32:55;;;;;;;17.15;5.25;;;4.10;99.90;;;;;;5069227;28;20156;-71
2022/03/25 05:35:22;;;;;;;11.57;5.57;;;4.80;99.90;;;;;;5051273;28;20188;-72
2022/03/25 05:37:49;;;;;;;6.70;5.15;;;5.20;99.90;;;;;;5069075;28;20167;-71
2022/03/25 05:40:16;;;;;;;10.23;5.75;;;5.50;99.90;;;;;;5068870;28;20157;-71
2022/03/25 05:42:42;;;;;;;12.00;5.95;;;5.70;99.70;;;;;;5069030;28;20184;-71
2022/03/25 05:45:09;;;;;;;7.82;5.50;;;5.90;99.70;;;;;;5068983;28;20164;-71
2022/03/25 05:47:37;;;;;;;9.25;5.72;;;6.30;98.80;;;;;;5068949;28;20160;-71
2022/03/25 05:50:06;;;;;;;10.45;6.15;;;6.60;98.20;;;;;;5068876;28;20248;-72
2022/03/25 05:52:32;;;;;;;14.68;5.80;;;7.00;98.10;;;;;;5051127;28;20199;-70
2022/03/25 05:54:58;;;;;;;11.15;5.45;;;7.60;96.70;;;;;;5068876;28;20188;-71
2022/03/25 05:57:24;;;;;;;15.98;6.28;;;7.70;96.80;;;;;;5068729;28;20156;-71
2022/03/25 05:59:50;;;;;;;10.63;5.80;;;7.40;97.10;;;;;;5068441;28;20216;-71
2022/03/25 06:02:16;;;;;;;19.45;7.00;;;7.30;97.40;;;;;;5068919;28;20230;-71
2022/03/25 06:04:42;;;;;;;14.90;5.57;;;7.20;97.30;;;;;;5070696;28;20165;-71
2022/03/25 06:07:09;;;;;;;15.02;4.90;;;7.40;97.00;;;;;;5072562;28;20164;-71
2022/03/25 06:09:35;;;;;;;9.52;5.35;;;7.40;97.00;;;;;;5072490;28;20207;-71
2022/03/25 06:12:01;;;;;;;8.55;4.40;;;7.20;97.20;;;;;;5072725;28;20184;-71
2022/03/25 06:14:27;;;;;;;12.05;5.75;;;7.20;97.70;;;;;;5072216;28;20188;-70
2022/03/25 06:16:53;;;;;;;13.50;5.03;;;7.00;97.70;;;;;;5072189;28;20161;-70
2022/03/25 06:19:19;;;;;;;13.93;6.75;;;7.00;97.50;;;;;;5072428;28;20200;-70
2022/03/25 06:21:45;;;;;;;13.75;6.97;;;7.00;98.00;;;;;;5072363;28;20185;-71
2022/03/25 06:24:12;;;;;;;13.50;7.00;;;7.10;98.20;;;;;;5072413;28;20165;-70
2022/03/25 06:26:38;;;;;;;14.18;7.35;;;7.20;98.00;;;;;;5072200;28;20169;-70
2022/03/25 06:29:04;;;;;;;10.18;6.03;;;7.30;98.00;;;;;;5071961;28;20195;-71
2022/03/25 06:31:30;;;;;;;14.00;7.03;;;7.40;97.90;;;;;;5072273;28;20240;-70
2022/03/25 06:33:56;;;;;;;13.75;6.63;;;7.40;97.70;;;;;;5072203;28;20165;-70
2022/03/25 06:36:22;;;;;;;17.25;6.82;;;7.70;97.70;;;;;;5072229;28;20617;-71
2022/03/25 06:38:49;;;;;;;19.60;7.20;;;8.00;97.20;;;;;;5071948;28;20195;-72
2022/03/25 06:41:15;;;;;;;12.55;7.00;;;8.90;96.20;;;;;;5071933;28;20203;-72
2022/03/25 06:43:41;;;;;;;10.45;6.20;;;9.50;94.90;;;;;;5054158;28;20165;-72
2022/03/25 06:46:07;;;;;;;12.23;6.60;;;9.70;94.90;;;;;;5071880;28;20184;-71
2022/03/25 06:48:34;;;;;;;17.75;6.95;;;10.20;94.70;;;;;;5072052;28;20192;-71
2022/03/25 06:51:00;;;;;;;12.48;6.25;;;11.20;92.90;;;;;;5071784;28;20161;-71
2022/03/25 06:53:27;;;;;;;13.18;6.22;;;11.00;92.70;;;;;;5053955;28;20232;-71
2022/03/25 06:55:54;;;;;;;14.95;6.40;;;10.70;93.20;;;;;;5071737;28;20252;-71
2022/03/25 06:58:20;;;;;;;16.95;6.30;;;10.50;93.30;;;;;;5071060;28;20239;-72
2022/03/25 07:00:46;;;;;;;14.00;6.40;;;10.40;93.50;;;;;;5070337;28;20168;-72
2022/03/25 07:03:13;;;;;;;17.88;6.70;;;10.80;93.10;;;;;;5070542;28;20165;-71
2022/03/25 07:05:40;;;;;;;19.55;7.10;;;12.30;91.90;;;;;;5070276;28;20213;-71
2022/03/25 07:08:07;;;;;;;15.38;7.22;;;14.30;87.90;;;;;;5070350;28;20215;-72
2022/03/25 07:10:33;;;;;;;17.67;6.65;;;15.70;84.80;;;;;;5070335;28;20215;-72
2022/03/25 07:13:00;;;;;;;10.98;6.90;;;16.30;83.10;;;;;;5070180;28;20173;-72
2022/03/25 07:15:25;;;;;;;11.40;6.93;;;16.40;82.60;;;;;;5051445;28;20267;-72
2022/03/25 07:17:52;;;;;;;10.18;6.63;;;16.20;82.20;;;;;;5069843;28;20157;-72
2022/03/25 07:20:21;;;;;;;23.08;6.72;;;16.00;82.40;;;;;;5070021;28;20188;-72
2022/03/25 07:22:49;;;;;;;11.73;6.03;;;14.80;85.10;;;;;;5070030;28;20527;-71
2022/03/25 07:25:16;;;;;;;15.65;6.63;;;13.90;87.00;;;;;;5065257;28;20303;-72
2022/03/25 07:27:44;;;;;;;14.43;7.35;;;15.20;85.60;;;;;;5069968;28;20180;-71
2022/03/25 07:30:12;;;;;;;11.05;5.95;;;15.00;84.60;;;;;;5069977;28;20160;-71
2022/03/25 07:32:39;;;;;;;13.88;5.75;;;14.20;86.60;;;;;;5069587;28;20267;-71
2022/03/25 07:35:07;;;;;;;14.00;6.07;;;13.90;88.00;;;;;;5069836;28;20197;-72
2022/03/25 07:37:33;;;;;;;21.15;6.50;;;13.70;88.40;;;;;;5069947;28;20157;-72
2022/03/25 07:39:59;;;;;;;12.27;6.05;;;14.40;86.80;;;;;;5069817;28;20630;-71
2022/03/25 07:42:25;;;;;;;15.73;6.32;;;15.70;83.50;;;;;;5069433;28;20153;-72
2022/03/25 07:44:51;;;;;;;11.43;5.68;;;16.90;81.30;;;;;;5069632;28;20168;-72
2022/03/25 07:47:17;;;;;;;20.67;5.93;;;17.70;78.30;;;;;;5069742;28;20544;-72
2022/03/25 07:49:43;;;;;;;14.05;5.50;;;18.00;79.10;;;;;;5069848;28;20168;-72
2022/03/25 07:52:14;;;;;;;14.25;5.97;;;19.30;76.20;;;;;;5069609;28;20192;-72
2022/03/25 07:54:40;;;;;;;11.02;6.45;;;20.30;74.10;;;;;;5069348;28;20226;-72
2022/03/25 07:57:07;;;;;;;12.07;6.40;;;20.20;73.20;;;;;;5069261;28;20164;-71
2022/03/25 07:59:33;;;;;;;9.10;5.75;;;18.90;74.40;;;;;;5026292;28;1249203;-72
2022/03/25 08:01:59;;;;;;;14.35;6.20;;;19.10;74.10;;;;;;5086200;28;20222;-72
2022/03/25 08:04:25;;;;;;;17.23;6.32;;;20.00;72.90;;;;;;5090615;28;20243;-73
2022/03/25 08:06:52;;;;;;;16.35;6.07;;;20.70;73.30;;;;;;5090250;28;20187;-72
2022/03/25 08:09:18;;;;;;;8.88;5.90;;;20.80;73.30;;;;;;5090483;28;20156;-73
2022/03/25 08:11:47;;;;;;;14.35;6.20;;;22.10;68.00;;;;;;5090419;28;20220;-73
2022/03/25 08:14:14;;;;;;;14.35;6.63;;;22.80;66.90;;;;;;5090317;28;20209;-73
2022/03/25 08:16:42;;;;;;;12.60;6.63;;;23.30;66.60;;;;;;5089962;28;20184;-73
2022/03/25 08:19:08;;;;;;;15.98;6.53;;;23.30;66.10;;;;;;5090481;28;20164;-72
2022/03/25 08:21:34;;;;;;;14.02;6.55;;;23.30;65.80;;;;;;5089932;28;20166;-73
2022/03/25 08:29:28;;;;;;;16.33;7.90;;;23.60;64.00;;;;;;5089995;28;20159;-74
2022/03/25 08:31:54;;;;;;;14.85;8.13;;;23.40;64.80;;;;;;5089483;28;20167;-71
2022/03/25 08:34:21;;;;;;;13.27;7.97;;;23.10;65.20;;;;;;5089748;28;20191;-71
2022/03/25 08:36:49;;;;;;;11.52;8.50;;;23.00;63.30;;;;;;5088995;28;20186;-71
2022/03/25 08:39:16;;;;;;;14.73;9.30;;;22.70;64.00;;;;;;5089469;28;20148;-71
2022/03/25 08:41:42;;;;;;;13.98;8.60;;;22.10;64.10;;;;;;5089505;28;20163;-71
2022/03/25 08:44:09;;;;;;;16.33;10.07;;;22.40;65.70;;;;;;5089527;28;20736;-71
2022/03/25 08:46:36;;;;;;;17.33;10.55;;;22.70;61.40;;;;;;5089542;28;20197;-72
2022/03/25 08:49:03;;;;;;;19.90;10.40;;;22.30;62.20;;;;;;5089684;28;20160;-72
2022/03/25 08:51:30;;;;;;;17.08;10.70;;;22.30;61.10;;;;;;5089327;28;20156;-72
2022/03/25 08:53:56;;;;;;;18.08;11.80;;;23.10;61.60;;;;;;5089830;28;20156;-70
2022/03/25 08:56:27;;;;;;;21.10;12.13;;;24.00;61.90;;;;;;5067603;28;20203;-74
2022/03/25 08:58:54;;;;;;;20.83;10.60;;;23.20;61.00;;;;;;5064205;28;20258;-70
2022/03/25 09:01:24;;;;;;;25.13;12.35;;;22.80;62.40;;;;;;5065271;28;20222;-71
2022/03/25 09:03:50;;;;;;;20.48;12.63;;;23.60;61.00;;;;;;5049258;28;20232;-71
2022/03/25 09:06:16;;;;;;;21.98;12.25;;;22.40;61.60;;;;;;5060602;28;20175;-71
2022/03/25 09:08:41;;;;;;;21.60;12.90;;;21.80;63.40;;;;;;5058117;28;20274;-72
2022/03/25 09:11:09;;;;;;;20.55;12.98;;;21.30;64.30;;;;;;5057849;28;20203;-71
2022/03/25 09:13:36;;;;;;;19.25;12.38;;;21.90;64.70;;;;;;5065110;28;20225;-71
2022/03/25 09:16:02;;;;;;;23.30;14.18;;;22.00;62.90;;;;;;5060710;28;20203;-72
2022/03/25 09:18:28;;;;;;;23.35;13.55;;;21.90;62.00;;;;;;5057828;28;20153;-71
2022/03/25 09:20:54;;;;;;;24.00;12.75;;;21.50;63.40;;;;;;5057082;28;20196;-72
2022/03/25 09:23:20;;;;;;;23.23;12.63;;;22.30;65.30;;;;;;5058262;28;20164;-72
2022/03/25 09:25:46;;;;;;;22.05;12.77;;;22.40;61.50;;;;;;5038842;28;20236;-72
2022/03/25 09:28:12;;;;;;;21.83;12.63;;;21.90;63.00;;;;;;5056441;28;20173;-72
2022/03/25 09:30:39;;;;;;;28.30;12.65;;;21.40;63.50;;;;;;5068545;28;20277;-72
2022/03/25 09:33:09;;;;;;;22.98;12.35;;;23.00;63.60;;;;;;5068408;28;20168;-72
2022/03/25 09:35:42;;;;;;;19.80;13.25;;;24.40;59.20;;;;;;5068607;28;20208;-72
2022/03/25 09:38:08;;;;;;;22.38;13.10;;;23.20;60.00;;;;;;5055073;28;20228;-72
2022/03/25 09:40:35;;;;;;;24.92;13.13;;;23.00;60.70;;;;;;5059887;28;20265;-72
2022/03/25 09:43:01;;;;;;;21.67;12.40;;;23.10;61.30;;;;;;5057649;28;20192;-71
2022/03/25 09:45:30;;;;;;;23.05;13.43;;;21.70;62.20;;;;;;5059451;28;20193;-71
2022/03/25 09:47:56;;;;;;;21.80;12.93;;;22.20;62.10;;;;;;5055671;28;20173;-71
2022/03/25 09:50:25;;;;;;;24.00;13.02;;;22.40;61.20;;;;;;5047942;28;20246;-71
2022/03/25 09:52:52;;;;;;;26.85;12.30;;;22.10;62.80;;;;;;5046585;28;20177;-71
2022/03/25 09:55:18;;;;;;;21.33;12.27;;;22.80;61.90;;;;;;5046660;28;20200;-71
2022/03/25 09:57:45;;;;;;;21.50;12.80;;;23.10;61.50;;;;;;5046496;28;20236;-71
2022/03/25 10:00:17;;;;;;;23.35;12.65;;;22.10;64.70;;;;;;5029029;28;20169;-72
2022/03/25 10:02:45;;;;;;;20.23;12.70;;;22.30;62.40;;;;;;5046160;28;20157;-71
2022/03/25 10:05:21;;;;;;;22.55;13.30;;;22.50;63.40;;;;;;5047154;28;20197;-71
2022/03/25 10:07:55;;;;;;;19.45;12.30;;;23.00;62.70;;;;;;5048409;28;20156;-71
2022/03/25 10:10:27;;;;;;;22.98;13.60;;;24.60;59.70;;;;;;5054773;28;20184;-71
2022/03/25 10:13:02;;;;;;;27.73;12.43;;;25.50;57.40;;;;;;5068061;28;20161;-72
2022/03/25 10:15:31;;;;;;;21.25;11.48;;;25.30;58.00;;;;;;5068559;28;20207;-71
2022/03/25 10:18:04;;;;;;;24.00;12.15;;;24.80;60.60;;;;;;5068185;28;20167;-70
2022/03/25 10:20:40;;;;;;;20.23;12.02;;;24.30;57.00;;;;;;5068521;28;20306;-71
2022/03/25 10:23:18;;;;;;;19.40;11.77;;;24.40;60.50;;;;;;5050404;28;20163;-71
2022/03/25 10:25:49;;;;;;;17.02;10.95;;;24.20;60.10;;;;;;5068392;28;20167;-71
2022/03/25 10:28:26;;;;;;;19.30;10.85;;;23.20;58.80;;;;;;5068251;28;20178;-71
2022/03/25 10:30:55;;;;;;;18.45;11.13;;;22.60;58.40;;;;;;5068162;28;20168;-71
2022/03/25 10:33:42;;;;;;;23.70;12.00;;;21.60;61.00;;;;;;5068360;28;20153;-71
2022/03/25 10:36:10;;;;;;;19.85;11.55;;;22.20;62.00;;;;;;5068461;28;20192;-71
2022/03/25 10:39:11;;;;;;;21.52;11.50;;;23.10;60.70;;;;;;5068302;28;20161;-71
2022/03/25 10:41:41;;;;;;;22.85;11.73;;;24.10;60.50;;;;;;5064182;28;20180;-71
2022/03/25 10:44:09;;;;;;;27.58;13.23;;;24.70;59.00;;;;;;5068214;28;20255;-71
2022/03/25 10:46:54;;;;;;;25.20;13.05;;;25.00;58.20;;;;;;5068412;28;20187;-71
2022/03/25 10:49:20;;;;;;;25.27;13.05;;;24.70;57.80;;;;;;5081343;28;20186;-71
2022/03/25 10:51:57;;;;;;;21.40;13.02;;;24.60;57.70;;;;;;5091280;28;20171;-72
2022/03/25 10:54:25;;;;;;;23.02;13.90;;;24.20;59.40;;;;;;5091298;28;20248;-71
2022/03/25 10:56:56;;;;;;;20.20;12.52;;;23.60;60.80;;;;;;5083385;28;20175;-71
2022/03/25 10:59:28;;;;;;;16.98;11.73;;;22.90;59.90;;;;;;5091468;28;20214;-71
2022/03/25 11:02:02;;;;;;;19.73;11.82;;;21.60;60.50;;;;;;5091417;28;20168;-74
2022/03/25 11:04:29;;;;;;;20.40;12.73;;;22.00;60.00;;;;;;5091442;28;20405;-73
2022/03/25 11:06:58;;;;;;;22.02;12.23;;;22.30;59.70;;;;;;5091643;28;20155;-73
2022/03/25 11:09:27;;;;;;;18.40;12.10;;;22.30;61.70;;;;;;5090580;28;20163;-72
2022/03/25 11:11:55;;;;;;;20.65;12.45;;;23.10;58.40;;;;;;5073627;28;20196;-73
2022/03/25 11:14:21;;;;;;;20.00;12.85;;;22.60;62.60;;;;;;5069854;28;20268;-73
2022/03/25 11:16:56;;;;;;;21.10;12.40;;;22.20;60.80;;;;;;5070285;28;20172;-72
2022/03/25 11:19:23;;;;;;;21.60;12.00;;;22.30;59.40;;;;;;5070077;28;20183;-72
2022/03/25 11:21:50;;;;;;;18.88;12.07;;;22.20;60.20;;;;;;5069945;28;20160;-74
2022/03/25 11:24:19;;;;;;;25.13;13.00;;;22.10;60.30;;;;;;5070933;28;20152;-73
2022/03/25 11:26:48;;;;;;;18.15;11.48;;;22.30;63.60;;;;;;5071334;28;20161;-74
2022/03/25 11:29:18;;;;;;;18.75;12.35;;;22.80;59.90;;;;;;5071069;28;20160;-74
2022/03/25 11:32:02;;;;;;;17.75;10.68;;;22.40;58.70;;;;;;5070893;28;20235;-74
2022/03/25 11:34:28;;;;;;;21.88;11.90;;;23.10;58.80;;;;;;5071106;28;20219;-74
2022/03/25 11:37:24;;;;;;;22.75;12.52;;;23.40;59.00;;;;;;5071122;28;20156;-73
2022/03/25 11:40:15;;;;;;;19.60;11.82;;;23.50;59.20;;;;;;5070650;28;20223;-73
2022/03/25 11:42:45;;;;;;;20.35;11.52;;;24.20;57.30;;;;;;5070139;28;20187;-72
2022/03/25 11:45:31;;;;;;;16.25;10.98;;;23.70;58.70;;;;;;5073513;28;20231;-73
2022/03/25 11:48:06;;;;;;;20.08;12.25;;;24.00;57.40;;;;;;5090760;28;20178;-73
2022/03/25 11:50:43;;;;;;;16.98;10.95;;;23.50;57.60;;;;;;5090593;28;20193;-72
2022/03/25 11:53:12;;;;;;;17.05;11.23;;;23.30;57.30;;;;;;5090716;28;20195;-72
2022/03/25 11:56:01;;;;;;;19.00;12.23;;;23.10;56.50;;;;;;5090602;28;20191;-72
2022/03/25 11:58:29;;;;;;;16.10;11.23;;;23.40;58.80;;;;;;5090586;28;20203;-73
2022/03/25 12:01:18;;;;;;;16.45;12.20;;;23.60;57.50;;;;;;5090435;28;20228;-72
2022/03/25 12:03:47;;;;;;;20.00;12.00;;;22.90;57.40;;;;;;5090309;28;20211;-73
2022/03/25 12:06:14;;;;;;;21.63;11.73;;;22.50;58.60;;;;;;5090327;28;20167;-73
2022/03/25 12:09:15;;;;;;;17.67;11.50;;;22.20;57.50;;;;;;5090424;28;20175;-72
2022/03/25 12:11:52;;;;;;;20.67;11.30;;;22.20;58.70;;;;;;5075170;28;20183;-72
2022/03/25 12:14:20;;;;;;;19.92;10.77;;;22.80;58.20;;;;;;5051341;28;20198;-72
2022/03/25 12:16:49;;;;;;;17.92;11.00;;;23.40;58.00;;;;;;5070489;28;20164;-74
2022/03/25 12:19:26;;;;;;;21.70;12.48;;;24.40;58.40;;;;;;5070523;28;20175;-73
2022/03/25 12:22:18;;;;;;;19.45;11.70;;;24.30;55.80;;;;;;5050409;28;20610;-72
2022/03/25 12:24:45;;;;;;;18.85;11.50;;;23.00;58.30;;;;;;5050318;28;20184;-73
2022/03/25 12:27:11;;;;;;;17.55;11.75;;;22.00;58.80;;;;;;5050103;28;20225;-72
2022/03/25 12:29:39;;;;;;;20.40;10.55;;;21.10;59.30;;;;;;5049945;28;20187;-73
2022/03/25 12:32:10;;;;;;;19.25;11.13;;;20.80;61.30;;;;;;5032007;28;20265;-73
2022/03/25 12:34:57;;;;;;;20.63;10.90;;;20.30;62.00;;;;;;5050025;28;20189;-72
2022/03/25 12:37:35;;;;;;;17.17;10.35;;;20.20;63.20;;;;;;5050138;28;20527;-72
2022/03/25 12:40:21;;;;;;;19.38;11.98;;;20.20;62.30;;;;;;5051615;28;20172;-73
2022/03/25 12:43:11;;;;;;;20.92;12.85;;;19.70;63.00;;;;;;5048708;28;20192;-72
2022/03/25 12:45:49;;;;;;;20.17;11.27;;;19.40;64.70;;;;;;5049790;28;20157;-73
2022/03/25 12:48:21;;;;;;;18.45;11.48;;;19.00;65.70;;;;;;5067621;28;20176;-73
2022/03/25 12:50:54;;;;;;;16.50;10.80;;;18.80;65.20;;;;;;5044416;28;20196;-72
2022/03/25 12:53:26;;;;;;;16.80;11.57;;;18.70;64.70;;;;;;5049185;28;20181;-72
2022/03/25 12:55:52;;;;;;;19.17;10.15;;;18.90;66.70;;;;;;5049227;28;20192;-72